Beirne, AR (71721)

2:11 PM CST on January 18, 2017 (GMT -0600)
MBLRA4 | | Change Station

Elev 357 ft 33.69 °N, 93.16 °W | Updated 4 minutes ago

Overcast
Overcast
50.0 °F
Feels Like 50.0 °F
N
3.0
Wind Variable Wind from North
Gusts 7.0 mph

Today
High -- | Low -- °F
--% Chance of Precip.
Yesterday
High -- | Low -- °F
Precip. -- in
Pressure 30.11 in
Visibility 4.0 miles
Clouds Overcast 600 ft
Dew Point 49 °F
Humidity 98%
Rainfall 1.01 in
Snow Depth Not available.
7:16 AM 5:30 PM
Waning Gibbous, 60% visible
METAR KADF 181956Z AUTO 07005KT 4SM BR OVC006 09/08 A3009 RMK AO2 SLP195 T00890083
Pressure 30.11 in
Visibility 4.0 miles
Clouds Overcast 600 ft
Dew Point 49 °F
Humidity 98%
Rainfall 1.01 in
Snow Depth Not available.
7:16 AM 5:30 PM
Waning Gibbous, 60% visible
METAR KADF 181956Z AUTO 07005KT 4SM BR OVC006 09/08 A3009 RMK AO2 SLP195 T00890083

Get Your Daily Forecast Email!

Thanks for signing up!

Be on the lookout for a verification email in your inbox.

You'll start receiving the daily forecast at 8 AM.

×

10-Day Weather Forecast

Almanac

Astronomy

Jan. 18, 2017 Rise Set
Actual Time
Civil Twilight
Nautical Twilight
Astronomical Twilight
Moon
Length of Visible Light
Length of Day
Tomorrow will be .
, % of the Moon is Illuminated

Today's Extremes

State Highs State Lows

Community

WunderPhotos

Upload Photos

1,962,540 photos uploaded!

WunderBlog® & News

Nearby

Air Quality

  Air Quality AQ Index Pollutant
Not available.

Snow Depth

Station Depth Elevation

Earthquake Activity

City Distance Mag. Time & Date
Minimum magnitude displayed is 2.5.

Coastal Water Temperatures

Place Temperature

Stations

Nearby Weather Stations

Station Location Temp. Windchill Dew Point Humidity Wind Precip. Elev Updated Type
                   

Watches & Warnings

There are currently no watches in effect.